createdAt,value
2022-08-08T00:01:08.023Z,25.19
2022-08-08T00:03:44.044Z,25.20
2022-08-08T00:06:36.497Z,25.20
2022-08-08T00:09:02.951Z,25.20
2022-08-08T00:11:46.513Z,25.20
2022-08-08T00:14:57.251Z,25.20
2022-08-08T00:18:02.360Z,25.19
2022-08-08T00:20:36.336Z,25.19
2022-08-08T00:23:08.017Z,25.19
2022-08-08T00:25:46.399Z,25.19
2022-08-08T00:28:36.183Z,25.18
2022-08-08T00:32:15.639Z,25.19
2022-08-08T00:34:20.022Z,25.17
2022-08-08T00:36:51.522Z,25.17
2022-08-08T00:41:06.721Z,25.10
2022-08-08T00:42:36.623Z,25.12
2022-08-08T00:45:27.187Z,25.08
2022-08-08T00:48:30.116Z,25.04
2022-08-08T00:50:57.558Z,25.09
2022-08-08T00:53:43.566Z,25.12
2022-08-08T00:56:41.909Z,25.12
2022-08-08T00:59:14.093Z,25.12
2022-08-08T01:01:48.072Z,25.14
2022-08-08T01:04:33.585Z,25.14
2022-08-08T01:07:01.721Z,25.13
2022-08-08T01:10:01.756Z,25.13
2022-08-08T01:12:54.705Z,25.12
2022-08-08T01:15:43.681Z,25.12
2022-08-08T01:18:25.479Z,25.11
2022-08-08T01:21:35.114Z,25.11
2022-08-08T01:24:16.874Z,25.10
2022-08-08T01:26:49.510Z,25.09
2022-08-08T01:29:35.654Z,25.11
2022-08-08T01:32:23.877Z,25.08
2022-08-08T01:34:59.442Z,25.10
2022-08-08T01:37:57.156Z,25.10
2022-08-08T01:40:34.574Z,25.10
2022-08-08T01:43:20.246Z,25.09
2022-08-08T01:45:54.439Z,25.09
2022-08-08T01:48:46.241Z,25.09
2022-08-08T01:52:29.279Z,25.10
2022-08-08T01:55:19.279Z,25.10
2022-08-08T01:58:12.139Z,25.10
2022-08-08T02:00:22.554Z,25.09
2022-08-08T02:03:55.036Z,25.11
2022-08-08T02:05:59.381Z,25.10
2022-08-08T02:08:35.042Z,25.11
2022-08-08T02:11:59.882Z,25.09
2022-08-08T02:14:28.768Z,25.09
2022-08-08T02:17:36.467Z,25.08
2022-08-08T02:21:00.598Z,25.08
2022-08-08T02:23:16.033Z,25.08
2022-08-08T02:26:00.416Z,25.06
2022-08-08T02:28:48.399Z,25.07
2022-08-08T02:31:58.082Z,25.06
2022-08-08T02:34:33.149Z,25.05
2022-08-08T02:37:53.305Z,25.05
2022-08-08T02:40:14.763Z,25.06
2022-08-08T02:42:45.191Z,25.05
2022-08-08T02:45:18.824Z,25.03
2022-08-08T02:48:06.572Z,25.04
2022-08-08T02:50:39.983Z,25.03
2022-08-08T02:53:09.231Z,25.01
2022-08-08T02:55:59.755Z,25.02
2022-08-08T02:58:41.704Z,25.02
2022-08-08T03:01:20.419Z,24.99
2022-08-08T03:05:03.478Z,24.99
2022-08-08T03:07:14.282Z,24.97
2022-08-08T03:10:05.012Z,24.96
2022-08-08T03:13:02.065Z,24.97
2022-08-08T03:15:58.356Z,24.97
2022-08-08T03:18:35.034Z,24.96
2022-08-08T03:21:01.708Z,24.96
2022-08-08T03:23:54.804Z,24.96
2022-08-08T03:26:32.592Z,24.96
2022-08-08T03:29:16.770Z,24.97
2022-08-08T03:32:08.726Z,24.96
2022-08-08T03:34:35.563Z,24.94
2022-08-08T03:37:10.796Z,24.96
2022-08-08T03:40:00.568Z,24.96
2022-08-08T03:42:30.829Z,24.95
2022-08-08T03:44:57.590Z,24.95
2022-08-08T03:47:25.858Z,24.95
2022-08-08T03:50:14.721Z,24.95
2022-08-08T03:52:46.717Z,24.95
2022-08-08T03:55:55.107Z,24.95
2022-08-08T03:58:31.129Z,24.94
2022-08-08T04:01:20.659Z,24.94
2022-08-08T04:03:57.997Z,24.93
2022-08-08T04:06:29.921Z,24.93
2022-08-08T04:08:57.067Z,24.93
2022-08-08T04:11:25.551Z,24.94
2022-08-08T04:14:33.351Z,24.94
2022-08-08T04:16:40.905Z,24.95
2022-08-08T04:19:25.246Z,24.93
2022-08-08T04:21:52.410Z,24.94
2022-08-08T04:24:28.831Z,24.95
2022-08-08T04:26:58.737Z,24.95
2022-08-08T04:29:25.904Z,24.94
2022-08-08T04:31:58.716Z,24.93
2022-08-08T04:34:28.120Z,24.94
2022-08-08T04:36:58.988Z,24.93
2022-08-08T04:40:03.814Z,24.93
2022-08-08T04:42:15.853Z,24.92
2022-08-08T04:44:43.618Z,24.93
2022-08-08T04:47:14.937Z,24.92
2022-08-08T04:49:55.913Z,24.91
2022-08-08T04:52:34.068Z,24.93
2022-08-08T04:55:02.186Z,24.94
2022-08-08T04:57:28.847Z,24.94
2022-08-08T04:59:55.369Z,24.94
2022-08-08T05:02:28.491Z,24.96
2022-08-08T05:04:59.585Z,24.96
2022-08-08T05:07:26.573Z,24.97
2022-08-08T05:10:04.593Z,24.96
2022-08-08T05:12:36.880Z,24.98
2022-08-08T05:15:13.633Z,24.96
2022-08-08T05:17:54.362Z,24.96
2022-08-08T05:20:21.301Z,24.98
2022-08-08T05:22:51.106Z,24.99
2022-08-08T05:25:20.468Z,25.01
2022-08-08T05:27:48.130Z,25.02
2022-08-08T05:30:14.836Z,25.04
2022-08-08T05:32:42.517Z,25.06
2022-08-08T05:35:09.883Z,25.06
2022-08-08T05:37:53.418Z,25.10
2022-08-08T05:40:21.565Z,25.10
2022-08-08T05:42:59.319Z,25.12
2022-08-08T05:45:41.343Z,25.14
2022-08-08T05:48:09.910Z,25.16
2022-08-08T05:50:36.710Z,25.18
2022-08-08T05:53:54.178Z,25.19
2022-08-08T05:56:09.655Z,25.21
2022-08-08T05:58:56.780Z,25.24
2022-08-08T06:01:55.856Z,25.26
2022-08-08T06:04:14.063Z,25.29
2022-08-08T06:06:51.145Z,25.27
2022-08-08T06:09:58.893Z,25.28
2022-08-08T06:12:09.551Z,25.30
2022-08-08T06:14:47.623Z,25.31
2022-08-08T06:17:29.527Z,25.30
2022-08-08T06:20:05.145Z,25.33
2022-08-08T06:22:38.637Z,25.35
2022-08-08T06:25:10.379Z,25.37
2022-08-08T06:27:49.041Z,25.37
2022-08-08T06:30:19.937Z,25.37
2022-08-08T06:32:57.564Z,25.37
2022-08-08T06:36:06.963Z,25.36
2022-08-08T06:38:14.928Z,25.38
2022-08-08T06:40:48.710Z,25.40
2022-08-08T06:43:30.679Z,25.41
2022-08-08T06:46:01.605Z,25.37
2022-08-08T06:48:28.907Z,25.39
2022-08-08T06:50:55.725Z,25.42
2022-08-08T06:53:22.726Z,25.45
2022-08-08T06:56:02.327Z,25.46
2022-08-08T06:58:30.719Z,25.49
2022-08-08T07:01:00.875Z,25.50
2022-08-08T07:04:35.678Z,25.50
2022-08-08T07:06:28.939Z,25.51
2022-08-08T07:09:03.902Z,25.52
2022-08-08T07:11:46.301Z,25.52
2022-08-08T07:14:19.386Z,25.54
2022-08-08T07:16:58.498Z,25.53
2022-08-08T07:19:30.505Z,25.51
2022-08-08T07:22:05.602Z,25.53
2022-08-08T07:24:44.043Z,25.53
2022-08-08T07:27:16.672Z,25.56
2022-08-08T07:30:02.196Z,25.59
2022-08-08T07:32:31.663Z,25.61
2022-08-08T07:35:00.988Z,25.62
2022-08-08T07:37:28.595Z,25.65
2022-08-08T07:40:29.198Z,25.68
2022-08-08T07:42:59.481Z,25.70
2022-08-08T07:45:26.520Z,25.73
2022-08-08T07:48:02.765Z,25.74
2022-08-08T07:50:37.292Z,25.76
2022-08-08T07:54:01.022Z,25.76
2022-08-08T07:56:11.179Z,25.75
2022-08-08T07:58:42.169Z,25.77
2022-08-08T08:01:11.764Z,25.77
2022-08-08T08:03:43.652Z,25.77
2022-08-08T08:06:11.956Z,25.78
2022-08-08T08:08:52.256Z,25.76
2022-08-08T08:11:21.250Z,25.76
2022-08-08T08:14:08.354Z,25.74
2022-08-08T08:16:39.384Z,25.75
2022-08-08T08:19:12.852Z,25.74
2022-08-08T08:21:56.967Z,25.74
2022-08-08T08:24:30.664Z,25.75
2022-08-08T08:26:58.993Z,25.77
2022-08-08T08:29:27.976Z,25.79
2022-08-08T08:31:57.737Z,25.80
2022-08-08T08:34:32.520Z,25.82
2022-08-08T08:37:03.284Z,25.85
2022-08-08T08:40:00.069Z,25.85
2022-08-08T08:42:29.163Z,25.87
2022-08-08T08:45:22.072Z,25.90
2022-08-08T08:47:53.066Z,25.93
2022-08-08T08:50:32.818Z,25.94
2022-08-08T08:53:26.864Z,25.96
2022-08-08T08:55:50.554Z,25.99
2022-08-08T08:58:39.981Z,26.00
2022-08-08T09:01:14.568Z,26.02
2022-08-08T09:03:47.818Z,26.04
2022-08-08T09:06:28.868Z,26.05
2022-08-08T09:09:05.422Z,26.06
2022-08-08T09:11:47.475Z,26.07
2022-08-08T09:14:23.109Z,26.09
2022-08-08T09:16:52.770Z,26.10
2022-08-08T09:21:53.873Z,26.13
2022-08-08T09:22:06.742Z,26.13
2022-08-08T09:24:33.506Z,26.12
2022-08-08T09:27:09.223Z,26.14
2022-08-08T09:29:53.291Z,26.17
2022-08-08T09:32:40.746Z,26.25
2022-08-08T09:35:31.804Z,26.28
2022-08-08T09:38:02.980Z,26.26
2022-08-08T09:40:41.889Z,26.21
2022-08-08T09:44:04.455Z,26.17
2022-08-08T09:46:25.400Z,26.16
2022-08-08T09:49:02.162Z,26.15
2022-08-08T09:52:06.027Z,26.12
2022-08-08T09:54:44.595Z,26.11
2022-08-08T09:57:17.318Z,26.10
2022-08-08T09:59:57.187Z,26.10
2022-08-08T10:02:36.645Z,26.12
2022-08-08T10:05:07.025Z,26.13
2022-08-08T10:08:01.126Z,26.15
2022-08-08T10:10:38.189Z,26.16
2022-08-08T10:13:18.935Z,26.16
2022-08-08T10:16:00.672Z,26.18
2022-08-08T10:18:33.427Z,26.20
2022-08-08T10:21:25.327Z,26.21
2022-08-08T10:23:58.997Z,26.20
2022-08-08T10:26:30.450Z,26.24
2022-08-08T10:29:22.981Z,26.28
2022-08-08T10:32:15.137Z,26.30
2022-08-08T10:34:49.434Z,26.29
2022-08-08T10:37:26.434Z,26.31
2022-08-08T10:39:55.478Z,26.32
2022-08-08T10:42:32.047Z,26.31
2022-08-08T10:45:00.288Z,26.30
2022-08-08T10:47:34.804Z,26.30
2022-08-08T10:50:10.751Z,26.28
2022-08-08T10:52:43.219Z,26.28
2022-08-08T10:55:41.261Z,26.27
2022-08-08T10:58:06.634Z,26.24
2022-08-08T11:00:39.263Z,26.22
2022-08-08T11:03:36.914Z,26.20
2022-08-08T11:06:07.042Z,26.19
2022-08-08T11:08:50.188Z,26.16
2022-08-08T11:11:59.914Z,26.15
2022-08-08T11:14:07.078Z,26.14
2022-08-08T11:16:35.173Z,26.13
2022-08-08T11:19:02.269Z,26.13
2022-08-08T11:21:37.649Z,26.13
2022-08-08T11:24:05.672Z,26.11
2022-08-08T11:26:34.798Z,26.12
2022-08-08T11:29:06.227Z,26.12
2022-08-08T11:31:51.412Z,26.12
2022-08-08T11:34:23.158Z,26.09
2022-08-08T11:36:51.138Z,26.08
2022-08-08T11:39:20.027Z,26.10
2022-08-08T11:41:47.798Z,26.10
2022-08-08T11:44:19.130Z,26.10
2022-08-08T11:46:57.872Z,26.10
2022-08-08T11:49:25.977Z,26.12
2022-08-08T11:51:54.654Z,26.12
2022-08-08T11:54:33.868Z,26.12
2022-08-08T11:57:35.038Z,26.13
2022-08-08T12:00:06.878Z,26.15
2022-08-08T12:02:45.351Z,26.15
2022-08-08T12:05:13.540Z,26.16
2022-08-08T12:07:56.145Z,26.15
2022-08-08T12:10:30.368Z,26.15
2022-08-08T12:13:15.705Z,26.14
2022-08-08T12:15:48.354Z,26.13
2022-08-08T12:18:28.636Z,26.11
2022-08-08T12:20:56.811Z,26.10
2022-08-08T12:23:43.965Z,26.11
2022-08-08T12:26:27.779Z,26.10
2022-08-08T12:29:02.666Z,26.08
2022-08-08T12:31:30.727Z,26.07
2022-08-08T12:34:06.085Z,26.07
2022-08-08T12:36:40.353Z,26.07
2022-08-08T12:39:13.570Z,26.09
2022-08-08T12:41:56.763Z,26.07
2022-08-08T12:44:30.249Z,26.08
2022-08-08T12:47:02.774Z,26.08
2022-08-08T12:49:43.032Z,26.10
2022-08-08T12:52:28.551Z,26.10
2022-08-08T12:55:35.404Z,26.10
2022-08-08T12:58:15.855Z,26.10
2022-08-08T13:00:42.559Z,26.11
2022-08-08T13:03:10.710Z,26.11
2022-08-08T13:06:04.156Z,26.09
2022-08-08T13:08:39.637Z,26.10
2022-08-08T13:11:28.628Z,26.11
2022-08-08T13:14:15.408Z,26.12
2022-08-08T13:16:42.596Z,26.10
2022-08-08T13:19:17.800Z,26.10
2022-08-08T13:21:53.251Z,26.12
2022-08-08T13:24:41.927Z,26.11
2022-08-08T13:27:11.878Z,26.11
2022-08-08T13:29:48.491Z,26.13
2022-08-08T13:32:16.827Z,26.14
2022-08-08T13:34:43.779Z,26.15
2022-08-08T13:37:27.776Z,26.15
2022-08-08T13:40:05.026Z,26.14
2022-08-08T13:42:32.302Z,26.12
2022-08-08T13:44:59.965Z,26.12
2022-08-08T13:47:27.358Z,26.10
2022-08-08T13:50:38.765Z,26.11
2022-08-08T13:52:52.078Z,26.10
2022-08-08T13:55:29.204Z,26.09
2022-08-08T13:58:08.408Z,26.10
2022-08-08T14:00:45.288Z,26.08
2022-08-08T14:03:47.167Z,26.07
2022-08-08T14:06:32.156Z,26.08
2022-08-08T14:08:58.110Z,26.05
2022-08-08T14:11:27.991Z,26.03
2022-08-08T14:14:00.637Z,26.03
2022-08-08T14:16:28.994Z,26.05
2022-08-08T14:19:00.943Z,26.04
2022-08-08T14:21:49.037Z,26.05
2022-08-08T14:24:33.138Z,26.04
2022-08-08T14:26:59.802Z,26.01
2022-08-08T14:29:30.629Z,26.00
2022-08-08T14:32:10.859Z,26.00
2022-08-08T14:34:39.968Z,25.99
2022-08-08T14:37:09.588Z,25.98
2022-08-08T14:39:48.413Z,25.98
2022-08-08T14:42:16.964Z,25.97
2022-08-08T14:44:53.129Z,25.97
2022-08-08T14:47:21.150Z,25.96
2022-08-08T14:50:05.934Z,25.97
2022-08-08T14:52:54.274Z,25.97
2022-08-08T14:55:35.345Z,25.96
2022-08-08T14:58:12.173Z,25.95
2022-08-08T15:00:44.376Z,25.95
2022-08-08T15:03:14.707Z,25.95
2022-08-08T15:05:52.823Z,25.97
2022-08-08T15:08:34.747Z,25.96
2022-08-08T15:11:06.427Z,25.96
2022-08-08T15:13:34.987Z,25.95
2022-08-08T15:16:12.009Z,25.94
2022-08-08T15:18:50.165Z,25.93
2022-08-08T15:21:18.636Z,25.93
2022-08-08T15:23:51.070Z,25.92
2022-08-08T15:26:18.359Z,25.93
2022-08-08T15:28:44.837Z,25.93
2022-08-08T15:31:11.736Z,25.91
2022-08-08T15:33:59.062Z,25.90
2022-08-08T15:36:28.595Z,25.91
2022-08-08T15:38:55.376Z,25.90
2022-08-08T15:41:24.996Z,25.91
2022-08-08T15:44:03.477Z,25.91
2022-08-08T15:46:34.824Z,25.92
2022-08-08T15:49:02.062Z,25.91
2022-08-08T15:51:32.773Z,25.90
2022-08-08T15:54:00.708Z,25.90
2022-08-08T15:56:27.185Z,25.90
2022-08-08T15:58:53.614Z,25.90
2022-08-08T16:01:20.891Z,25.89
2022-08-08T16:03:48.277Z,25.89
2022-08-08T16:06:28.739Z,25.88
2022-08-08T16:08:57.965Z,25.89
2022-08-08T16:13:11.735Z,25.89
2022-08-08T16:14:32.806Z,25.88
2022-08-08T16:17:00.171Z,25.88
2022-08-08T16:19:27.309Z,25.87
2022-08-08T16:21:56.546Z,25.86
2022-08-08T16:24:23.217Z,25.85
2022-08-08T16:26:50.787Z,25.86
2022-08-08T16:29:23.827Z,25.86
2022-08-08T16:32:04.349Z,25.85
2022-08-08T16:34:38.234Z,25.85
2022-08-08T16:37:07.314Z,25.84
2022-08-08T16:40:03.034Z,25.83
2022-08-08T16:42:20.329Z,25.84
2022-08-08T16:44:54.754Z,25.83
2022-08-08T16:47:39.950Z,25.81
2022-08-08T16:50:13.607Z,25.83
2022-08-08T16:55:04.091Z,25.81
2022-08-08T16:55:55.593Z,25.81
2022-08-08T16:58:18.601Z,25.81
2022-08-08T17:00:49.012Z,25.82
2022-08-08T17:03:16.121Z,25.81
2022-08-08T17:05:51.125Z,25.82
2022-08-08T17:08:17.772Z,25.82
2022-08-08T17:10:57.729Z,25.83
2022-08-08T17:13:41.346Z,25.83
2022-08-08T17:16:17.236Z,25.82
2022-08-08T17:18:45.620Z,25.82
2022-08-08T17:21:12.356Z,25.83
2022-08-08T17:24:01.918Z,25.85
2022-08-08T17:26:29.396Z,25.83
2022-08-08T17:28:56.538Z,25.83
2022-08-08T17:31:44.335Z,25.83
2022-08-08T17:34:35.977Z,25.85
2022-08-08T17:37:01.078Z,25.85
2022-08-08T17:40:03.849Z,25.83
2022-08-08T17:42:19.110Z,25.84
2022-08-08T17:44:45.985Z,25.83
2022-08-08T17:47:16.090Z,25.84
2022-08-08T17:49:51.765Z,25.83
2022-08-08T17:52:19.242Z,25.84
2022-08-08T17:54:46.361Z,25.84
2022-08-08T17:57:14.262Z,25.83
2022-08-08T17:59:45.587Z,25.83
2022-08-08T18:02:18.834Z,25.85
2022-08-08T18:04:50.265Z,25.84
2022-08-08T18:08:03.210Z,25.85
2022-08-08T18:10:04.019Z,25.83
2022-08-08T18:12:30.634Z,25.82
2022-08-08T18:14:57.594Z,25.82
2022-08-08T18:17:28.910Z,25.82
2022-08-08T18:20:43.132Z,25.81
2022-08-08T18:22:59.849Z,25.80
2022-08-08T18:25:26.318Z,25.81
2022-08-08T18:28:03.878Z,25.80
2022-08-08T18:30:30.302Z,25.81
2022-08-08T18:32:58.805Z,25.81
2022-08-08T18:35:25.280Z,25.80
2022-08-08T18:38:03.663Z,25.79
2022-08-08T18:40:43.309Z,25.79
2022-08-08T18:43:16.702Z,25.78
2022-08-08T18:46:00.355Z,25.78
2022-08-08T18:48:30.002Z,25.77
2022-08-08T18:50:58.215Z,25.77
2022-08-08T18:53:25.053Z,25.76
2022-08-08T18:56:19.610Z,25.76
2022-08-08T18:58:46.177Z,25.75
2022-08-08T19:02:25.691Z,25.74
2022-08-08T19:04:10.341Z,25.75
2022-08-08T19:06:39.590Z,25.75
2022-08-08T19:09:13.580Z,25.75
2022-08-08T19:11:46.224Z,25.75
2022-08-08T19:14:13.623Z,25.73
2022-08-08T19:16:47.428Z,25.71
2022-08-08T19:19:14.977Z,25.69
2022-08-08T19:21:48.848Z,25.68
2022-08-08T19:24:38.814Z,25.68
2022-08-08T19:27:03.057Z,25.66
2022-08-08T19:29:30.597Z,25.66
2022-08-08T19:31:57.378Z,25.66
2022-08-08T19:34:35.604Z,25.64
2022-08-08T19:37:08.754Z,25.63
2022-08-08T19:39:43.527Z,25.62
2022-08-08T19:42:13.598Z,25.62
2022-08-08T19:44:45.741Z,25.61
2022-08-08T19:47:13.882Z,25.63
2022-08-08T19:49:43.640Z,25.62
2022-08-08T19:52:35.303Z,25.62
2022-08-08T19:55:09.617Z,25.60
2022-08-08T19:57:38.495Z,25.57
2022-08-08T20:00:11.502Z,25.57
2022-08-08T20:02:55.251Z,25.56
2022-08-08T20:06:13.503Z,25.57
2022-08-08T20:08:29.032Z,25.55
2022-08-08T20:10:59.908Z,25.51
2022-08-08T20:14:12.711Z,25.51
2022-08-08T20:16:13.231Z,25.52
2022-08-08T20:18:52.655Z,25.53
2022-08-08T20:21:23.277Z,25.52
2022-08-08T20:23:54.229Z,25.53
2022-08-08T20:26:27.499Z,25.51
2022-08-08T20:28:57.124Z,25.52
2022-08-08T20:31:23.937Z,25.50
2022-08-08T20:34:27.285Z,25.46
2022-08-08T20:36:41.493Z,25.50
2022-08-08T20:39:10.441Z,25.48
2022-08-08T20:41:37.071Z,25.48
2022-08-08T20:44:07.934Z,25.49
2022-08-08T20:46:35.573Z,25.49
2022-08-08T20:49:04.221Z,25.49
2022-08-08T20:51:32.309Z,25.48
2022-08-08T20:54:03.612Z,25.50
2022-08-08T20:57:16.422Z,25.51
2022-08-08T20:59:30.510Z,25.50
2022-08-08T21:02:06.041Z,25.48
2022-08-08T21:04:35.389Z,25.47
2022-08-08T21:07:04.985Z,25.47
2022-08-08T21:09:48.533Z,25.47
2022-08-08T21:12:33.039Z,25.49
2022-08-08T21:15:06.619Z,25.51
2022-08-08T21:17:34.824Z,25.51
2022-08-08T21:20:11.384Z,25.50
2022-08-08T21:22:38.077Z,25.52
2022-08-08T21:25:05.385Z,25.51
2022-08-08T21:28:05.778Z,25.51
2022-08-08T21:30:24.560Z,25.54
2022-08-08T21:32:52.158Z,25.57
2022-08-08T21:36:15.032Z,25.57
2022-08-08T21:38:16.213Z,25.58
2022-08-08T21:40:56.372Z,25.59
2022-08-08T21:43:33.055Z,25.59
2022-08-08T21:48:07.242Z,25.60
2022-08-08T21:48:52.691Z,25.62
2022-08-08T21:54:30.980Z,25.61
2022-08-08T21:54:35.076Z,25.63
2022-08-08T21:56:54.565Z,25.61
2022-08-08T21:59:21.277Z,25.59
2022-08-08T22:01:55.488Z,25.58
2022-08-08T22:04:25.585Z,25.60
2022-08-08T22:06:52.274Z,25.61
2022-08-08T22:09:18.943Z,25.60
2022-08-08T22:11:59.310Z,25.58
2022-08-08T22:14:37.070Z,25.59
2022-08-08T22:17:03.897Z,25.61
2022-08-08T22:20:10.957Z,25.59
2022-08-08T22:22:17.107Z,25.59
2022-08-08T22:24:52.028Z,25.60
2022-08-08T22:27:38.485Z,25.60
2022-08-08T22:30:06.455Z,25.61
2022-08-08T22:32:40.343Z,25.61
2022-08-08T22:35:12.400Z,25.59
2022-08-08T22:37:53.720Z,25.62
2022-08-08T22:40:24.445Z,25.61
2022-08-08T22:42:58.251Z,25.58
2022-08-08T22:45:25.093Z,25.59
2022-08-08T22:47:53.711Z,25.61
2022-08-08T22:50:25.168Z,25.60
2022-08-08T22:54:15.638Z,25.60
2022-08-08T22:55:58.589Z,25.62
2022-08-08T22:58:28.338Z,25.59
2022-08-08T23:00:55.438Z,25.59
2022-08-08T23:03:21.997Z,25.60
2022-08-08T23:05:49.669Z,25.58
2022-08-08T23:08:19.873Z,25.55
2022-08-08T23:10:52.961Z,25.54
2022-08-08T23:13:22.353Z,25.54
2022-08-08T23:16:39.653Z,25.54
2022-08-08T23:18:40.195Z,25.54
2022-08-08T23:21:07.751Z,25.54
2022-08-08T23:23:48.383Z,25.54
2022-08-08T23:26:15.427Z,25.54
2022-08-08T23:28:41.962Z,25.55
2022-08-08T23:31:09.033Z,25.55
2022-08-08T23:34:17.831Z,25.56
2022-08-08T23:36:26.127Z,25.55
2022-08-08T23:38:53.014Z,25.55
2022-08-08T23:41:24.776Z,25.55
2022-08-08T23:43:54.366Z,25.56
2022-08-08T23:49:05.199Z,25.54
2022-08-08T23:49:18.094Z,25.56
2022-08-08T23:52:06.078Z,25.56
2022-08-08T23:54:41.695Z,25.56
2022-08-08T23:57:25.614Z,25.55
